Terminal Aerodrome Forecast
Issued by NWS

Home | Current Version | Previous Version | Text Only | Print | Product List | Glossary On
Versions: 1 2 3 4 5 6 7 8 9 10 11 12
016
FTUS45 KRIW 042331
TAFCOD
TAF
KCOD 042331Z 0500/0524 20008KT P6SM SCT100
     FM050400 22008KT P6SM FEW100
     FM052000 15009KT P6SM VCSH SCT090 BKN150
      AMD LTD TO CLD VIS AND WIND=

USA.gov is the U.S. government's official web portal to all federal, state and local government web resources and services.